Flight Track Log - Related Links

Times and Time Zones

All times are in EDT time to prevent confusion due to time zone crossing. See the IMG104 flight status page for this flight to view local times or setup timezone preferences in your user account.

Time Position Orientation Groundspeed Altitude Reporting Facility
EDT Latitude Longitude Course Direction KTS MPH feet Rate Location/Type
Wed 04:55:45 PM 33.8667 -84.2833 90° East 134 154 2,300  Level Atlanta TRACON
Wed 04:56:51 PM 33.8667 -84.2333 90° East 136 157 3,300 900 Climbing Atlanta TRACON
Wed 04:57:45 PM 33.8500 -84.1833 112° Southeast 154 177 4,100 778 Climbing Atlanta TRACON
Wed 04:58:39 PM 33.8667 -84.1333 68° East 154 177 4,700 400 Climbing Atlanta TRACON
Wed 04:59:45 PM 33.8667 -84.0833 90° East 174 200 4,900 95 Climbing Atlanta TRACON
Wed 05:00:45 PM 33.8833 -84.0167 73° East 177 204 4,900  Level Atlanta TRACON
Wed 05:01:00 PM 33.8667 -83.9816 90° East  Level FlightAware Approximate
Wed 05:01:45 PM 33.8833 -83.9667 90° East 171 197 4,900  Level Atlanta TRACON
Wed 05:02:45 PM 33.8833 -83.9000 90° East 171 197 4,900 50 Level Atlanta TRACON
Wed 05:03:45 PM 33.9000 -83.8500 68° East 171 197 5,000 50 Climbing Atlanta TRACON
Wed 05:04:45 PM 33.9000 -83.7833 90° East 171 197 5,000  Level Atlanta TRACON
Wed 05:05:45 PM 33.9000 -83.7333 90° East 171 197 5,000  Level Atlanta TRACON
Wed 05:06:45 PM 33.9167 -83.6833 68° East 167 192 5,000  Level Atlanta TRACON
Wed 05:07:39 PM 33.9167 -83.6333 90° East 171 197 5,000  Level Atlanta TRACON
Wed 05:08:45 PM 33.9167 -83.5667 90° East 169 194 5,000  Level Atlanta TRACON
Wed 05:09:45 PM 33.9333 -83.5167 68° East 170 196 5,000  Level Atlanta TRACON
Wed 05:10:40 PM 33.9333 -83.4667 90° East 167 192 5,000  Level Atlanta TRACON
Wed 05:11:40 PM 33.9333 -83.4000 90° East 172 198 5,000  Level Atlanta TRACON
Wed 05:12:40 PM 33.9500 -83.3500 68° East 170 196 5,000  Level Atlanta TRACON
Wed 05:13:40 PM 33.9333 -83.2833 107° East 170 196 5,000  Level Atlanta TRACON
Wed 05:14:46 PM 33.9333 -83.2333 90° East 172 198 5,000  Level Atlanta TRACON
Wed 05:15:40 PM 33.9167 -83.1833 112° Southeast 171 197 5,000  Level Atlanta TRACON
Wed 05:16:40 PM 33.9167 -83.1167 90° East 171 197 5,000  Level Atlanta TRACON
Wed 05:17:46 PM 33.9000 -83.0667 112° Southeast 169 194 5,000  Level Atlanta TRACON
Wed 05:19:00 PM 33.8798 -83.0059 112° Southeast  Level FlightAware Approximate
Wed 05:26:00 PM 33.8038 -82.6468 99° East  Level FlightAware Approximate
Wed 05:27:00 PM 33.7946 -82.5951 107° East  Level FlightAware Approximate
Wed 05:28:00 PM 33.7819 -82.5443 107° East  Level FlightAware Approximate
Wed 05:29:00 PM 33.7692 -82.4936 107° East  Level FlightAware Approximate
Wed 05:30:00 PM 33.7585 -82.4422 103° East  Level FlightAware Approximate
Wed 05:31:00 PM 33.7482 -82.3906 103° East  Level FlightAware Approximate
Wed 05:32:00 PM 33.7379 -82.3391 103° East  Level FlightAware Approximate
Wed 05:33:00 PM 33.7276 -82.2876 104° East  Level FlightAware Approximate
Wed 05:34:00 PM 33.7173 -82.2361 104° East  Level FlightAware Approximate
Wed 05:35:00 PM 33.7070 -82.1846 104° East  Level FlightAware Approximate
Wed 05:36:00 PM 33.7023 -82.1328 81° East  Level FlightAware Approximate
Wed 05:37:00 PM 33.7091 -82.0805 81° East  Level FlightAware Approximate
Wed 05:38:00 PM 33.7159 -82.0282 81° East  Level FlightAware Approximate
Wed 05:39:00 PM 33.7227 -81.9758 81° East  Level FlightAware Approximate
Wed 05:40:00 PM 33.7295 -81.9235 81° East  Level FlightAware Approximate
Wed 05:41:00 PM 33.7363 -81.8711 81° East  Level FlightAware Approximate
Wed 05:42:00 PM 33.7430 -81.8187 81° East  Level FlightAware Approximate
Wed 05:43:00 PM 33.7497 -81.7663 81° East  Level FlightAware Approximate
Wed 05:44:00 PM 33.7564 -81.7140 81° East  Level FlightAware Approximate
Wed 05:45:00 PM 33.7631 -81.6616 81° East  Level FlightAware Approximate
Wed 05:46:00 PM 33.7702 -81.6093 80° East  Level FlightAware Approximate
Wed 05:47:00 PM 33.7777 -81.5570 80° East  Level FlightAware Approximate
Wed 05:48:00 PM 33.7853 -81.5048 80° East  Level FlightAware Approximate
Wed 05:49:00 PM 33.7928 -81.4525 80° East  Level FlightAware Approximate
Wed 05:50:00 PM 33.8003 -81.4003 80° East  Level FlightAware Approximate
Wed 05:51:00 PM 33.8078 -81.3480 80° East  Level FlightAware Approximate
Wed 05:52:00 PM 33.8152 -81.2958 80° East  Level FlightAware Approximate
Wed 05:53:00 PM 33.8227 -81.2435 80° East  Level FlightAware Approximate
Wed 05:54:00 PM 33.8301 -81.1912 80° East  Level FlightAware Approximate
Wed 05:55:00 PM 33.8375 -81.1389 80° East  Level FlightAware Approximate
Wed 05:56:00 PM 33.8449 -81.0866 80° East  Level FlightAware Approximate
Wed 05:57:00 PM 33.8598 -81.0393 42° Northeast  Level FlightAware Approximate
Wed 05:58:00 PM 33.8924 -81.0035 42° Northeast  Level FlightAware Approximate
Wed 05:59:00 PM 33.9249 -80.9677 42° Northeast  Level FlightAware Approximate
Wed 06:00:00 PM 33.9575 -80.9319 42° Northeast  Level FlightAware Approximate
Wed 06:01:00 PM 33.9900 -80.8961 42° Northeast  Level FlightAware Approximate
Wed 06:02:00 PM 34.0227 -80.8604 41° Northeast  Level FlightAware Approximate
Wed 06:03:00 PM 34.0559 -80.8254 41° Northeast  Level FlightAware Approximate
Wed 06:04:00 PM 34.0891 -80.7905 41° Northeast  Level FlightAware Approximate
Wed 06:05:00 PM 34.1223 -80.7555 41° Northeast  Level FlightAware Approximate
Wed 06:06:00 PM 34.1555 -80.7204 41° Northeast  Level FlightAware Approximate
Wed 06:07:00 PM 34.1887 -80.6854 41° Northeast  Level FlightAware Approximate
Wed 06:08:00 PM 34.2218 -80.6503 41° Northeast  Level FlightAware Approximate
Wed 06:09:00 PM 34.2550 -80.6152 41° Northeast  Level FlightAware Approximate
Wed 06:10:00 PM 34.2881 -80.5801 41° Northeast  Level FlightAware Approximate
Wed 06:11:00 PM 34.3213 -80.5449 41° Northeast  Level FlightAware Approximate
Wed 06:12:00 PM 34.3544 -80.5097 41° Northeast  Level FlightAware Approximate
Wed 06:13:00 PM 34.3875 -80.4745 41° Northeast  Level FlightAware Approximate
Wed 06:14:00 PM 34.4206 -80.4392 41° Northeast  Level FlightAware Approximate
Wed 06:15:00 PM 34.4537 -80.4040 41° Northeast  Level FlightAware Approximate
Wed 06:16:00 PM 34.4868 -80.3687 41° Northeast  Level FlightAware Approximate
Wed 06:17:00 PM 34.5199 -80.3334 41° Northeast  Level FlightAware Approximate
Wed 06:18:00 PM 34.5530 -80.2980 41° Northeast  Level FlightAware Approximate
Wed 06:19:00 PM 34.5853 -80.2617 44° Northeast  Level FlightAware Approximate
Wed 06:20:00 PM 34.6171 -80.2246 44° Northeast  Level FlightAware Approximate
Wed 06:21:00 PM 34.6489 -80.1875 44° Northeast  Level FlightAware Approximate
Wed 06:22:00 PM 34.6807 -80.1505 44° Northeast  Level FlightAware Approximate
Wed 06:23:00 PM 34.7125 -80.1133 44° Northeast  Level FlightAware Approximate
Wed 06:24:00 PM 34.7443 -80.0762 44° Northeast  Level FlightAware Approximate
Wed 06:25:00 PM 34.7776 -80.0413 33° Northeast  Level FlightAware Approximate
Wed 06:26:00 PM 34.8144 -80.0118 33° Northeast  Level FlightAware Approximate
Wed 06:27:00 PM 34.8511 -79.9821 43° Northeast  Level FlightAware Approximate
Wed 06:28:00 PM 34.8833 -79.9455 43° Northeast  Level FlightAware Approximate
Wed 06:29:00 PM 34.9155 -79.9088 43° Northeast  Level FlightAware Approximate
Wed 06:30:00 PM 34.9477 -79.8721 43° Northeast  Level FlightAware Approximate
Wed 06:31:00 PM 34.9817 -79.8334 43° Northeast  Level FlightAware Approximate
Wed 06:32:00 PM 35.0157 -79.7946 43° Northeast  Level FlightAware Approximate
Wed 06:33:00 PM 35.0496 -79.7558 43° Northeast  Level FlightAware Approximate
Wed 06:34:00 PM 35.0835 -79.7170 43° Northeast  Level FlightAware Approximate
Wed 06:35:00 PM 35.1175 -79.6781 43° Northeast  Level FlightAware Approximate
Wed 06:36:00 PM 35.1514 -79.6392 43° Northeast  Level FlightAware Approximate
Wed 06:36:31 PM 35.2939 -79.5414 31° Northeast 174 200 5,000  Level Washington Center
Wed 06:37:00 PM 35.1853 -79.6002 43° Northeast  Level FlightAware Approximate
Wed 06:37:13 PM 35.3217 -79.5200 32° Northeast 170 196 5,000  Level Washington Center
Wed 06:38:00 PM 35.2226 -79.5668 31° Northeast  Level FlightAware Approximate
Wed 06:38:14 PM 35.3644 -79.4914 29° Northeast 171 197 5,000  Level Washington Center
Wed 06:39:00 PM 35.2625 -79.5376 31° Northeast  Level FlightAware Approximate
Wed 06:39:21 PM 35.4050 -79.4603 32° Northeast 170 196 5,000  Level Washington Center
Wed 06:40:00 PM 35.3024 -79.5084 31° Northeast  Level FlightAware Approximate
Wed 06:40:13 PM 35.4475 -79.4317 29° Northeast 175 201 5,000  Level Washington Center
Wed 06:41:00 PM 35.3423 -79.4791 31° Northeast  Level FlightAware Approximate
Wed 06:41:14 PM 35.4861 -79.4031 31° Northeast 175 201 5,000  Level Washington Center
Wed 06:42:00 PM 35.3822 -79.4498 31° Northeast  Level FlightAware Approximate
Wed 06:42:14 PM 35.5228 -79.3614 43° Northeast 171 197 5,000  Level Washington Center
Wed 06:43:21 PM 35.5517 -79.3117 54° Northeast 168 193 5,000  Level Washington Center
Wed 06:44:22 PM 35.5700 -79.2589 67° East 162 186 5,000  Level Washington Center
Wed 06:45:25 PM 35.5819 -79.2058 75° East 167 192 5,000  Level Washington Center
Wed 06:46:31 PM 35.5964 -79.1428 74° East 164 189 5,000 -142 Level Washington Center
Wed 06:47:32 PM 35.6103 -79.0922 71° East 162 186 4,700 -425 Descending Washington Center
Wed 06:48:38 PM 35.6247 -79.0289 74° East 170 196 4,100 -365 Descending Washington Center
Wed 06:49:27 PM 35.6322 -78.9858 78° East 163 188 4,000 -55 Descending Washington Center
Wed 06:50:27 PM 35.6461 -78.9328 72° East 164 189 4,000  Level Washington Center
Wed 06:51:35 PM 35.6606 -78.8719 74° East 166 191 4,000  Level Washington Center
Wed 06:52:30 PM 35.6722 -78.8239 73° East 164 189 4,000 -52 Level Washington Center
Wed 06:53:30 PM 35.6861 -78.7681 73° East 167 192 3,900 -400 Descending Washington Center
Wed 06:54:30 PM 35.7289 -78.7314 35° Northeast 182 209 3,200 -756 Descending Washington Center
Wed 06:55:29 PM 35.7772 -78.7181 13° North 184 212 2,400 -700 Descending Washington Center
Wed 06:56:30 PM 35.8228 -78.7275 350° North 167 192 1,800 -694 Descending Washington Center
Wed 06:57:30 PM 35.8472 -78.7542 319° Northwest 107 123 1,000 -800 Descending Washington Center

Login

Don't have an account? Register now (free) for customized features, flight alerts, and more!